Impacts TAF Board
For situational awareness. Not to be used for flight planning purposes.
IDs:

KPHL - Philadelphia Intl, PA, US

Issued at 0529 UTC 21 Oct 2018
Updated at 0745 UTC 21 Oct 2018
Potential Impact None Slight Moderate High
Time<<22/08Z 22/09Z 22/10Z 22/11Z 22/12Z 22/13Z 22/14Z 22/15Z 22/16Z 22/17Z 22/18Z 22/19Z 22/20Z
Type PRVL PRVL PRVL PRVL
VIS >6 >6 >6 >6
CIG -- -- -- --
Cover SKC SKC SKC SKC
FltCat VFR VFR VFR VFR
WX -- -- -- --
WDir 270 270 270 270
WSpd 4 4 4 4
WGst -- -- -- --
Raw TAF
KPHL 210529Z 2106/2212 29010KT P6SM SCT035 BKN100
  FM210900 30012G20KT P6SM -SHRA OVC035
  FM211100 33016G24KT P6SM BKN035
  FM211300 32018G30KT P6SM SCT045
  FM212200 31010G18KT P6SM FEW045
  FM220100 31006KT P6SM SKC
  FM220500 27004KT P6SM SKC


METAR Board
Radar Display
Forecast Discussion
For situational awareness. Not to be used for flight planning purposes.